createdAt,value
2017-11-04T00:00:16.893Z,45.17
2017-11-04T00:02:44.766Z,49.40
2017-11-04T00:05:12.607Z,46.03
2017-11-04T00:07:40.457Z,49.13
2017-11-04T00:10:08.306Z,47.37
2017-11-04T00:12:36.174Z,48.10
2017-11-04T00:15:03.997Z,49.87
2017-11-04T00:17:31.841Z,47.53
2017-11-04T00:19:59.676Z,50.20
2017-11-04T00:22:27.540Z,45.60
2017-11-04T00:24:55.406Z,50.17
2017-11-04T00:27:23.251Z,47.17
2017-11-04T00:29:51.098Z,49.00
2017-11-04T00:32:18.928Z,49.77
2017-11-04T00:34:46.797Z,49.10
2017-11-04T00:37:14.622Z,41.57
2017-11-04T00:39:42.470Z,47.80
2017-11-04T00:42:10.296Z,50.33
2017-11-04T00:44:38.158Z,47.87
2017-11-04T00:47:06.024Z,49.00
2017-11-04T00:49:33.840Z,48.53
2017-11-04T00:52:01.677Z,49.00
2017-11-04T00:54:29.517Z,46.50
2017-11-04T00:56:57.344Z,46.30
2017-11-04T00:59:25.193Z,47.70
2017-11-04T01:01:53.029Z,47.47
2017-11-04T01:04:23.203Z,45.17
2017-11-04T01:06:51.064Z,48.10
2017-11-04T01:09:18.915Z,47.43
2017-11-04T01:11:46.758Z,51.40
2017-11-04T01:14:14.621Z,45.47
2017-11-04T01:16:42.452Z,49.10
2017-11-04T01:19:10.285Z,51.00
2017-11-04T01:21:38.133Z,46.67
2017-11-04T01:24:05.973Z,47.00
2017-11-04T01:26:33.830Z,47.77
2017-11-04T01:29:01.655Z,50.93
2017-11-04T01:31:29.497Z,48.00
2017-11-04T01:33:57.360Z,49.50
2017-11-04T01:36:25.228Z,49.93
2017-11-04T01:38:53.090Z,49.07
2017-11-04T01:41:20.961Z,49.83
2017-11-04T01:43:48.808Z,49.90
2017-11-04T01:46:16.645Z,52.30
2017-11-04T01:48:44.470Z,49.23
2017-11-04T01:51:12.317Z,50.40
2017-11-04T01:53:40.152Z,49.40
2017-11-04T01:56:08.005Z,51.00
2017-11-04T01:58:35.872Z,52.03
2017-11-04T02:01:03.740Z,48.80
2017-11-04T02:03:31.595Z,50.40
2017-11-04T02:05:59.436Z,52.33
2017-11-04T02:08:27.292Z,48.60
2017-11-04T02:10:55.160Z,52.73
2017-11-04T02:13:23.033Z,53.30
2017-11-04T02:15:50.837Z,53.70
2017-11-04T02:18:18.703Z,51.30
2017-11-04T02:20:46.564Z,55.67
2017-11-04T02:23:14.441Z,53.07
2017-11-04T02:25:42.261Z,54.67
2017-11-04T02:28:10.149Z,54.13
2017-11-04T02:30:38.006Z,56.37
2017-11-04T02:33:05.901Z,51.90
2017-11-04T02:35:33.772Z,51.77
2017-11-04T02:38:01.635Z,55.73
2017-11-04T02:40:29.530Z,52.90
2017-11-04T02:42:57.402Z,54.30
2017-11-04T02:45:25.236Z,50.87
2017-11-04T02:47:53.089Z,52.37
2017-11-04T02:50:20.946Z,55.87
2017-11-04T02:52:48.838Z,53.30
2017-11-04T02:55:16.689Z,55.73
2017-11-04T02:57:44.556Z,53.20
2017-11-04T03:00:12.401Z,50.70
2017-11-04T03:02:40.269Z,50.50
2017-11-04T03:05:08.142Z,49.97
2017-11-04T03:07:36.021Z,54.30
2017-11-04T03:10:03.892Z,51.57
2017-11-04T03:12:31.781Z,52.93
2017-11-04T03:14:59.648Z,52.70
2017-11-04T03:17:27.483Z,53.10
2017-11-04T03:19:55.397Z,55.67
2017-11-04T03:22:23.223Z,52.70
2017-11-04T03:24:51.092Z,55.27
2017-11-04T03:27:18.938Z,54.73
2017-11-04T03:29:46.806Z,55.50
2017-11-04T03:32:14.673Z,54.07
2017-11-04T03:34:42.543Z,52.90
2017-11-04T03:37:10.397Z,54.97
2017-11-04T03:39:38.232Z,54.63
2017-11-04T03:42:06.052Z,50.13
2017-11-04T03:44:33.889Z,52.17
2017-11-04T03:47:01.737Z,53.47
2017-11-04T03:49:29.578Z,51.23
2017-11-04T03:51:57.410Z,51.50
2017-11-04T03:54:25.249Z,54.93
2017-11-04T03:56:53.093Z,57.17
2017-11-04T03:59:20.949Z,56.27
2017-11-04T04:01:48.790Z,53.30
2017-11-04T04:04:16.653Z,56.13
2017-11-04T04:06:44.489Z,52.00
2017-11-04T04:09:12.351Z,52.97
2017-11-04T04:11:40.212Z,56.47
2017-11-04T04:14:08.940Z,52.80
2017-11-04T04:16:36.818Z,54.13
2017-11-04T04:19:04.707Z,54.77
2017-11-04T04:21:32.533Z,48.63
2017-11-04T04:24:00.388Z,51.30
2017-11-04T04:26:28.240Z,60.57
2017-11-04T04:28:56.143Z,55.37
2017-11-04T04:31:23.965Z,53.43
2017-11-04T04:33:51.832Z,56.13
2017-11-04T04:36:19.738Z,52.03
2017-11-04T04:38:47.566Z,52.97
2017-11-04T04:41:15.396Z,55.67
2017-11-04T04:43:43.242Z,54.43
2017-11-04T04:46:11.106Z,56.57
2017-11-04T04:48:38.932Z,53.43
2017-11-04T04:51:06.776Z,54.67
2017-11-04T04:53:34.614Z,54.10
2017-11-04T04:56:02.447Z,54.80
2017-11-04T04:58:30.279Z,54.20
2017-11-04T05:00:58.133Z,57.13
2017-11-04T05:03:25.940Z,57.30
2017-11-04T05:05:53.779Z,53.80
2017-11-04T05:08:21.621Z,54.20
2017-11-04T05:10:49.478Z,53.60
2017-11-04T05:13:17.357Z,52.60
2017-11-04T05:15:45.201Z,49.17
2017-11-04T05:18:13.035Z,56.27
2017-11-04T05:20:40.882Z,53.13
2017-11-04T05:23:08.716Z,53.97
2017-11-04T05:25:36.526Z,52.70
2017-11-04T05:28:04.377Z,54.33
2017-11-04T05:30:32.239Z,54.03
2017-11-04T05:33:00.053Z,55.33
2017-11-04T05:35:27.909Z,53.80
2017-11-04T05:37:55.753Z,54.13
2017-11-04T05:40:23.578Z,56.00
2017-11-04T05:42:51.409Z,54.53
2017-11-04T05:45:19.248Z,53.17
2017-11-04T05:47:47.072Z,56.97
2017-11-04T05:50:14.941Z,58.17
2017-11-04T05:52:42.828Z,58.33
2017-11-04T05:55:10.691Z,53.27
2017-11-04T05:57:41.351Z,57.00
2017-11-04T06:00:09.218Z,52.90
2017-11-04T06:02:37.121Z,55.40
2017-11-04T06:05:04.997Z,53.80
2017-11-04T06:07:32.854Z,51.97
2017-11-04T06:10:00.731Z,57.60
2017-11-04T06:12:28.593Z,52.60
2017-11-04T06:14:56.432Z,55.30
2017-11-04T06:17:24.294Z,53.53
2017-11-04T06:19:52.160Z,55.73
2017-11-04T06:22:19.999Z,55.23
2017-11-04T06:24:47.853Z,58.47
2017-11-04T06:27:15.686Z,55.27
2017-11-04T06:29:43.528Z,58.03
2017-11-04T06:32:11.359Z,55.17
2017-11-04T06:34:39.215Z,55.50
2017-11-04T06:37:07.070Z,52.30
2017-11-04T06:39:34.916Z,57.13
2017-11-04T06:42:02.785Z,54.57
2017-11-04T06:44:30.647Z,52.70
2017-11-04T06:46:58.468Z,56.20
2017-11-04T06:49:26.321Z,52.37
2017-11-04T06:51:54.127Z,55.27
2017-11-04T06:54:21.948Z,55.40
2017-11-04T06:56:49.795Z,57.00
2017-11-04T06:59:17.646Z,53.90
2017-11-04T07:01:45.496Z,51.93
2017-11-04T07:04:13.339Z,50.90
2017-11-04T07:06:41.174Z,52.90
2017-11-04T07:09:09.006Z,53.03
2017-11-04T07:11:36.872Z,49.63
2017-11-04T07:14:04.796Z,53.17
2017-11-04T07:16:32.625Z,49.60
2017-11-04T07:19:00.474Z,50.93
2017-11-04T07:21:28.328Z,53.80
2017-11-04T07:23:56.164Z,54.40
2017-11-04T07:26:23.994Z,51.70
2017-11-04T07:28:51.818Z,50.20
2017-11-04T07:31:19.661Z,54.37
2017-11-04T07:33:49.500Z,48.37
2017-11-04T07:36:17.401Z,50.43
2017-11-04T07:38:45.269Z,50.53
2017-11-04T07:41:13.133Z,50.07
2017-11-04T07:43:40.985Z,51.30
2017-11-04T07:46:08.822Z,53.40
2017-11-04T07:48:36.689Z,49.53
2017-11-04T07:51:04.572Z,52.60
2017-11-04T07:53:32.406Z,49.43
2017-11-04T07:56:00.246Z,56.37
2017-11-04T07:58:28.092Z,54.40
2017-11-04T08:00:57.408Z,48.47
2017-11-04T08:03:25.254Z,50.53
2017-11-04T08:05:53.134Z,49.63
2017-11-04T08:08:20.943Z,50.70
2017-11-04T08:10:48.779Z,49.50
2017-11-04T08:13:16.624Z,51.43
2017-11-04T08:15:44.445Z,49.60
2017-11-04T08:18:12.314Z,51.63
2017-11-04T08:20:40.177Z,51.93
2017-11-04T08:23:08.652Z,50.30
2017-11-04T08:25:36.470Z,51.07
2017-11-04T08:28:04.293Z,52.07
2017-11-04T08:30:32.102Z,48.43
2017-11-04T08:32:59.934Z,51.73
2017-11-04T08:35:27.791Z,50.30
2017-11-04T08:37:55.603Z,50.47
2017-11-04T08:40:23.425Z,51.13
2017-11-04T08:42:51.267Z,51.10
2017-11-04T08:45:19.101Z,48.10
2017-11-04T08:47:46.943Z,51.03
2017-11-04T08:50:14.809Z,47.37
2017-11-04T08:52:42.664Z,45.63
2017-11-04T08:55:10.504Z,43.40
2017-11-04T08:57:38.336Z,46.67
2017-11-04T09:00:06.176Z,44.73
2017-11-04T09:02:34.100Z,48.40
2017-11-04T09:05:01.953Z,48.33
2017-11-04T09:07:29.776Z,47.60
2017-11-04T09:09:57.605Z,44.60
2017-11-04T09:12:25.438Z,45.50
2017-11-04T09:14:53.304Z,46.20
2017-11-04T09:17:21.158Z,45.27
2017-11-04T09:19:49.012Z,43.03
2017-11-04T09:22:16.878Z,47.20
2017-11-04T09:24:44.791Z,45.17
2017-11-04T09:27:12.649Z,43.07
2017-11-04T09:29:40.512Z,45.17
2017-11-04T09:32:08.362Z,43.03
2017-11-04T09:34:36.269Z,43.30
2017-11-04T09:37:04.092Z,44.00
2017-11-04T09:39:31.939Z,43.47
2017-11-04T09:42:02.456Z,45.73
2017-11-04T09:44:30.337Z,43.00
2017-11-04T09:46:58.173Z,41.43
2017-11-04T09:49:26.045Z,42.10
2017-11-04T09:51:53.906Z,42.23
2017-11-04T09:54:21.758Z,42.67
2017-11-04T09:56:49.616Z,42.37
2017-11-04T09:59:17.502Z,44.83
2017-11-04T10:01:45.347Z,43.87
2017-11-04T10:04:13.196Z,46.23
2017-11-04T10:06:41.033Z,41.10
2017-11-04T10:09:08.889Z,42.43
2017-11-04T10:11:36.725Z,44.10
2017-11-04T10:14:04.574Z,41.37
2017-11-04T10:16:32.458Z,38.80
2017-11-04T10:19:00.302Z,40.30
2017-11-04T10:21:28.132Z,40.27
2017-11-04T10:23:55.957Z,40.07
2017-11-04T10:26:23.789Z,39.70
2017-11-04T10:28:51.635Z,35.60
2017-11-04T10:31:19.476Z,39.60
2017-11-04T10:33:47.324Z,36.90
2017-11-04T10:36:15.186Z,35.23
2017-11-04T10:38:43.029Z,37.27
2017-11-04T10:41:10.873Z,36.20
2017-11-04T10:43:38.723Z,37.10
2017-11-04T10:46:06.573Z,35.60
2017-11-04T10:48:34.385Z,36.17
2017-11-04T10:51:02.225Z,35.13
2017-11-04T10:53:30.068Z,36.20
2017-11-04T10:55:57.890Z,36.40
2017-11-04T10:58:25.721Z,38.10
2017-11-04T11:00:53.589Z,35.13
2017-11-04T11:03:21.420Z,35.80
2017-11-04T11:05:49.244Z,39.63
2017-11-04T11:08:17.084Z,38.63
2017-11-04T11:10:44.917Z,38.17
2017-11-04T11:13:12.757Z,36.03
2017-11-04T11:15:40.592Z,38.53
2017-11-04T11:18:08.433Z,34.60
2017-11-04T11:20:36.248Z,34.83
2017-11-04T11:23:04.119Z,37.70
2017-11-04T11:25:31.944Z,34.03
2017-11-04T11:27:59.775Z,35.37
2017-11-04T11:30:27.581Z,31.40
2017-11-04T11:32:55.425Z,31.73
2017-11-04T11:35:23.283Z,30.60
2017-11-04T11:37:51.109Z,32.60
2017-11-04T11:40:18.939Z,31.17
2017-11-04T11:42:46.808Z,31.93
2017-11-04T11:45:14.633Z,33.23
2017-11-04T11:47:42.505Z,32.57
2017-11-04T11:50:10.340Z,32.00
2017-11-04T11:52:38.169Z,32.17
2017-11-04T11:55:05.981Z,29.60
2017-11-04T11:57:33.813Z,33.60
2017-11-04T12:00:01.650Z,34.30
2017-11-04T12:02:29.518Z,33.20
2017-11-04T12:04:57.345Z,31.17
2017-11-04T12:07:25.211Z,31.50
2017-11-04T12:09:53.039Z,28.90
2017-11-04T12:12:20.873Z,28.57
2017-11-04T12:14:48.725Z,28.20
2017-11-04T12:17:16.549Z,27.80
2017-11-04T12:19:44.406Z,27.87
2017-11-04T12:22:12.281Z,28.57
2017-11-04T12:24:40.129Z,29.30
2017-11-04T12:27:08.011Z,29.30
2017-11-04T12:29:35.857Z,29.00
2017-11-04T12:32:03.705Z,34.60
2017-11-04T12:34:31.552Z,33.00
2017-11-04T12:36:59.375Z,30.80
2017-11-04T12:39:27.235Z,33.20
2017-11-04T12:41:55.072Z,31.67
2017-11-04T12:44:22.908Z,32.27
2017-11-04T12:46:50.749Z,33.43
2017-11-04T12:49:18.601Z,32.97
2017-11-04T12:51:46.427Z,33.67
2017-11-04T12:54:14.294Z,32.97
2017-11-04T12:56:42.117Z,31.67
2017-11-04T12:59:09.961Z,32.60
2017-11-04T13:01:37.784Z,34.93
2017-11-04T13:04:05.613Z,32.50
2017-11-04T13:06:33.415Z,34.80
2017-11-04T13:09:01.283Z,33.37
2017-11-04T13:11:29.128Z,34.90
2017-11-04T13:13:56.949Z,33.60
2017-11-04T13:16:24.786Z,37.50
2017-11-04T13:18:52.619Z,37.10
2017-11-04T13:21:21.529Z,36.97
2017-11-04T13:23:49.410Z,38.03
2017-11-04T13:26:17.245Z,36.23
2017-11-04T13:28:45.085Z,37.90
2017-11-04T13:31:12.905Z,36.27
2017-11-04T13:33:40.732Z,40.10
2017-11-04T13:36:08.545Z,35.60
2017-11-04T13:38:36.374Z,37.67
2017-11-04T13:41:04.196Z,37.20
2017-11-04T13:43:32.029Z,35.60
2017-11-04T13:45:59.880Z,38.17
2017-11-04T13:48:27.689Z,37.90
2017-11-04T13:50:55.503Z,39.40
2017-11-04T13:53:23.325Z,39.20
2017-11-04T13:55:51.128Z,38.90
2017-11-04T13:58:18.949Z,37.17
2017-11-04T14:00:46.762Z,39.40
2017-11-04T14:03:14.580Z,38.07
2017-11-04T14:05:42.397Z,38.70
2017-11-04T14:08:10.225Z,41.30
2017-11-04T14:10:38.161Z,41.37
2017-11-04T14:13:05.999Z,40.53
2017-11-04T14:15:33.805Z,40.13
2017-11-04T14:18:01.618Z,41.27
2017-11-04T14:20:29.456Z,40.33
2017-11-04T14:22:57.362Z,40.23
2017-11-04T14:25:25.223Z,40.83
2017-11-04T14:27:53.038Z,42.57
2017-11-04T14:30:20.848Z,37.67
2017-11-04T14:32:48.716Z,39.97
2017-11-04T14:35:16.548Z,39.63
2017-11-04T14:37:44.381Z,41.73
2017-11-04T14:40:12.211Z,38.23
2017-11-04T14:42:40.037Z,41.60
2017-11-04T14:45:07.865Z,41.70
2017-11-04T14:47:35.672Z,40.23
2017-11-04T14:50:03.521Z,42.30
2017-11-04T14:52:31.369Z,39.50
2017-11-04T14:54:59.216Z,37.20
2017-11-04T14:57:27.181Z,37.43
2017-11-04T14:59:55.011Z,37.10
2017-11-04T15:02:22.837Z,38.30
2017-11-04T15:04:50.660Z,37.70
2017-11-04T15:07:18.470Z,33.53
2017-11-04T15:09:46.300Z,36.70
2017-11-04T15:12:14.156Z,38.07
2017-11-04T15:14:41.976Z,38.47
2017-11-04T15:17:09.796Z,41.23
2017-11-04T15:19:37.609Z,36.80
2017-11-04T15:22:05.424Z,37.57
2017-11-04T15:24:33.241Z,36.83
2017-11-04T15:27:01.062Z,39.70
2017-11-04T15:29:28.867Z,38.77
2017-11-04T15:31:56.696Z,38.27
2017-11-04T15:34:24.537Z,39.50
2017-11-04T15:36:52.358Z,40.30
2017-11-04T15:39:20.180Z,38.67
2017-11-04T15:41:48.042Z,40.40
2017-11-04T15:44:15.869Z,42.00
2017-11-04T15:46:43.695Z,41.93
2017-11-04T15:49:11.590Z,42.23
2017-11-04T15:51:39.425Z,41.33
2017-11-04T15:54:07.285Z,39.37
2017-11-04T15:56:35.138Z,41.10
2017-11-04T15:59:02.980Z,37.97
2017-11-04T16:01:30.840Z,40.37
2017-11-04T16:03:58.688Z,41.93
2017-11-04T16:06:26.522Z,40.77
2017-11-04T16:08:54.341Z,44.10
2017-11-04T16:11:22.180Z,42.10
2017-11-04T16:13:50.013Z,42.10
2017-11-04T16:16:17.842Z,42.50
2017-11-04T16:18:45.675Z,44.23
2017-11-04T16:21:13.488Z,44.10
2017-11-04T16:23:41.281Z,44.13
2017-11-04T16:26:09.100Z,42.80
2017-11-04T16:28:36.934Z,43.13
2017-11-04T16:31:04.796Z,43.17
2017-11-04T16:33:32.636Z,41.60
2017-11-04T16:36:00.457Z,42.90
2017-11-04T16:38:28.274Z,43.00
2017-11-04T16:40:56.128Z,42.07
2017-11-04T16:43:23.961Z,43.30
2017-11-04T16:45:51.777Z,42.27
2017-11-04T16:48:19.636Z,41.53
2017-11-04T16:50:47.445Z,43.87
2017-11-04T16:53:16.158Z,42.77
2017-11-04T16:55:43.998Z,44.80
2017-11-04T16:58:11.840Z,43.80
2017-11-04T17:00:39.721Z,44.57
2017-11-04T17:03:07.560Z,44.37
2017-11-04T17:05:35.409Z,46.93
2017-11-04T17:08:03.231Z,43.67
2017-11-04T17:10:31.057Z,43.00
2017-11-04T17:12:58.900Z,44.37
2017-11-04T17:15:26.797Z,44.80
2017-11-04T17:17:54.635Z,43.13
2017-11-04T17:20:22.492Z,44.00
2017-11-04T17:22:50.335Z,45.80
2017-11-04T17:25:18.180Z,43.70
2017-11-04T17:27:46.048Z,45.30
2017-11-04T17:30:13.884Z,43.77
2017-11-04T17:32:41.724Z,42.70
2017-11-04T17:35:09.578Z,46.67
2017-11-04T17:37:37.425Z,45.23
2017-11-04T17:40:05.268Z,39.53
2017-11-04T17:42:33.089Z,49.60
2017-11-04T17:45:00.944Z,44.20
2017-11-04T17:47:28.773Z,46.60
2017-11-04T17:49:56.605Z,45.83
2017-11-04T17:52:24.417Z,45.00
2017-11-04T17:54:52.225Z,43.40
2017-11-04T17:57:20.066Z,45.77
2017-11-04T17:59:47.916Z,45.47
2017-11-04T18:02:15.736Z,46.83
2017-11-04T18:04:43.573Z,45.10
2017-11-04T18:07:11.436Z,45.37
2017-11-04T18:09:39.276Z,44.10
2017-11-04T18:12:07.093Z,44.07
2017-11-04T18:14:34.936Z,43.67
2017-11-04T18:17:02.763Z,44.87
2017-11-04T18:19:30.634Z,40.13
2017-11-04T18:21:58.445Z,43.00
2017-11-04T18:24:26.286Z,41.67
2017-11-04T18:26:54.149Z,41.70
2017-11-04T18:29:22.509Z,46.73
2017-11-04T18:31:50.349Z,42.13
2017-11-04T18:34:18.184Z,45.93
2017-11-04T18:36:46.023Z,43.67
2017-11-04T18:39:13.848Z,44.40
2017-11-04T18:41:41.716Z,43.33
2017-11-04T18:44:09.573Z,42.87
2017-11-04T18:46:37.420Z,43.47
2017-11-04T18:49:05.256Z,42.83
2017-11-04T18:51:33.114Z,49.03
2017-11-04T18:54:00.933Z,42.47
2017-11-04T18:56:28.769Z,42.30
2017-11-04T18:58:56.615Z,45.40
2017-11-04T19:01:24.440Z,42.63
2017-11-04T19:03:52.265Z,42.67
2017-11-04T19:06:20.121Z,41.90
2017-11-04T19:08:47.955Z,42.23
2017-11-04T19:11:15.780Z,42.47
2017-11-04T19:13:43.638Z,42.77
2017-11-04T19:16:11.458Z,44.83
2017-11-04T19:18:39.305Z,41.97
2017-11-04T19:21:07.276Z,39.20
2017-11-04T19:23:35.121Z,42.10
2017-11-04T19:26:02.949Z,41.07
2017-11-04T19:28:30.797Z,46.57
2017-11-04T19:30:58.694Z,43.23
2017-11-04T19:33:26.555Z,41.50
2017-11-04T19:35:54.404Z,43.40
2017-11-04T19:38:22.317Z,41.27
2017-11-04T19:40:50.211Z,41.30
2017-11-04T19:43:18.065Z,39.87
2017-11-04T19:45:45.911Z,42.57
2017-11-04T19:48:13.797Z,39.70
2017-11-04T19:50:41.733Z,41.97
2017-11-04T19:53:09.616Z,44.00
2017-11-04T19:55:37.448Z,39.77
2017-11-04T19:58:05.284Z,43.77
2017-11-04T20:00:33.133Z,39.80
2017-11-04T20:03:00.989Z,42.87
2017-11-04T20:05:28.909Z,42.60
2017-11-04T20:07:56.802Z,39.37
2017-11-04T20:10:24.669Z,40.20
2017-11-04T20:12:52.509Z,32.97
2017-11-04T20:15:20.385Z,36.47
2017-11-04T20:17:48.234Z,36.07
2017-11-04T20:20:16.078Z,37.47
2017-11-04T20:22:43.922Z,32.83
2017-11-04T20:25:11.772Z,35.97
2017-11-04T20:27:39.629Z,34.03
2017-11-04T20:30:07.496Z,35.93
2017-11-04T20:32:35.353Z,33.50
2017-11-04T20:35:03.236Z,27.83
2017-11-04T20:37:31.053Z,31.73
2017-11-04T20:39:58.882Z,33.03
2017-11-04T20:42:26.695Z,32.00
2017-11-04T20:44:54.524Z,31.50
2017-11-04T20:47:22.342Z,32.00
2017-11-04T20:49:50.179Z,33.93
2017-11-04T20:52:18.010Z,30.03
2017-11-04T20:54:45.841Z,30.10
2017-11-04T20:57:13.689Z,29.80
2017-11-04T20:59:41.514Z,28.47
2017-11-04T21:02:09.339Z,26.77
2017-11-04T21:04:37.175Z,27.70
2017-11-04T21:07:05.005Z,28.27
2017-11-04T21:09:32.807Z,27.43
2017-11-04T21:12:00.634Z,28.43
2017-11-04T21:14:28.501Z,23.50
2017-11-04T21:16:56.368Z,27.73
2017-11-04T21:19:24.185Z,26.73
2017-11-04T21:21:52.038Z,27.77
2017-11-04T21:24:19.864Z,25.57
2017-11-04T21:26:47.684Z,29.27
2017-11-04T21:29:15.492Z,23.90
2017-11-04T21:31:43.324Z,26.77
2017-11-04T21:34:11.144Z,23.57
2017-11-04T21:36:38.987Z,26.50
2017-11-04T21:39:06.808Z,26.50
2017-11-04T21:41:34.658Z,25.60
2017-11-04T21:44:02.479Z,25.73
2017-11-04T21:46:30.341Z,25.53
2017-11-04T21:48:58.189Z,26.67
2017-11-04T21:51:26.020Z,25.47
2017-11-04T21:53:53.856Z,24.43
2017-11-04T21:56:21.724Z,21.90
2017-11-04T21:58:49.549Z,26.47
2017-11-04T22:01:17.372Z,20.33
2017-11-04T22:03:45.235Z,24.27
2017-11-04T22:06:13.102Z,25.57
2017-11-04T22:08:40.936Z,25.83
2017-11-04T22:11:08.789Z,18.67
2017-11-04T22:13:36.618Z,23.57
2017-11-04T22:16:04.430Z,23.93
2017-11-04T22:18:32.278Z,22.73
2017-11-04T22:21:00.106Z,27.00
2017-11-04T22:23:27.933Z,25.20
2017-11-04T22:25:55.777Z,22.90
2017-11-04T22:28:23.609Z,23.70
2017-11-04T22:30:51.416Z,24.47
2017-11-04T22:33:19.238Z,24.60
2017-11-04T22:35:47.064Z,23.60
2017-11-04T22:38:14.892Z,25.93
2017-11-04T22:40:42.694Z,24.50
2017-11-04T22:43:10.526Z,19.97
2017-11-04T22:45:38.366Z,24.80
2017-11-04T22:48:06.189Z,23.07
2017-11-04T22:50:34.005Z,24.67
2017-11-04T22:53:01.826Z,23.30
2017-11-04T22:55:29.641Z,25.23
2017-11-04T22:57:57.492Z,25.13
2017-11-04T23:00:25.308Z,24.30
2017-11-04T23:02:53.113Z,26.20
2017-11-04T23:05:20.964Z,26.47
2017-11-04T23:07:48.785Z,25.73
2017-11-04T23:10:16.637Z,24.67
2017-11-04T23:12:44.449Z,25.17
2017-11-04T23:15:12.284Z,23.40
2017-11-04T23:17:40.109Z,24.23
2017-11-04T23:20:07.939Z,24.80
2017-11-04T23:22:35.760Z,25.33
2017-11-04T23:25:03.597Z,25.40
2017-11-04T23:27:31.417Z,25.80
2017-11-04T23:29:59.244Z,23.70
2017-11-04T23:32:27.096Z,18.57
2017-11-04T23:34:54.940Z,25.13
2017-11-04T23:37:22.781Z,25.27
2017-11-04T23:39:50.633Z,26.97
2017-11-04T23:42:18.463Z,22.17
2017-11-04T23:44:46.323Z,24.70
2017-11-04T23:47:14.150Z,23.80
2017-11-04T23:49:42.004Z,26.03
2017-11-04T23:52:09.830Z,25.87
2017-11-04T23:54:37.676Z,26.40
2017-11-04T23:57:05.504Z,26.77
2017-11-04T23:59:33.371Z,27.80
